Time;durP1;ratioP1;P1;durP2;ratioP2;P2;SDS_P1;SDS_P2;PMS_P1;PMS_P2;Temp;Humidity;BMP_temperature;BMP_pressure;BME280_temperature;BME280_humidity;BME280_pressure;Samples;Min_cycle;Max_cycle;Signal;HPM_P1;HPM_P2
2023/06/17 00:00:08;;;;;;;6.93;5.50;;;14.80;1.60;;;;;;5018231;28;20539;-74
2023/06/17 00:02:34;;;;;;;6.87;5.33;;;14.70;1.40;;;;;;5018193;28;20187;-74
2023/06/17 00:05:01;;;;;;;6.40;5.80;;;14.70;1.70;;;;;;5018294;28;20439;-74
2023/06/17 00:07:26;;;;;;;7.20;5.90;;;14.70;1.90;;;;;;5018279;28;20486;-74
2023/06/17 00:09:52;;;;;;;6.37;4.93;;;14.70;2.70;;;;;;5018220;28;20436;-74
2023/06/17 00:12:18;;;;;;;8.63;6.50;;;14.60;2.10;;;;;;5015969;28;20192;-74
2023/06/17 00:14:43;;;;;;;5.47;4.97;;;14.60;1.90;;;;;;5015110;28;20170;-74
2023/06/17 00:17:09;;;;;;;7.10;6.33;;;14.60;1.70;;;;;;5015224;28;20414;-74
2023/06/17 00:19:35;;;;;;;7.63;5.83;;;14.60;1.70;;;;;;5015151;28;20169;-73
2023/06/17 00:22:01;;;;;;;5.13;4.63;;;14.60;1.70;;;;;;5015001;28;20217;-74
2023/06/17 00:24:27;;;;;;;6.20;5.57;;;14.50;1.80;;;;;;5014915;28;20447;-74
2023/06/17 00:26:52;;;;;;;6.13;5.40;;;14.50;1.80;;;;;;5014878;28;20178;-74
2023/06/17 00:29:18;;;;;;;5.93;5.20;;;14.40;1.70;;;;;;5014889;28;20177;-74
2023/06/17 00:31:43;;;;;;;6.03;5.43;;;14.40;1.80;;;;;;5014491;28;20196;-74
2023/06/17 00:34:09;;;;;;;7.00;5.53;;;14.40;1.80;;;;;;5014686;28;20177;-74
2023/06/17 00:36:35;;;;;;;6.23;5.63;;;14.50;1.80;;;;;;5014912;28;20179;-74
2023/06/17 00:39:00;;;;;;;6.97;5.33;;;14.40;2.20;;;;;;5014814;28;20548;-74
2023/06/17 00:41:26;;;;;;;8.03;6.33;;;14.30;2.40;;;;;;5014482;28;20224;-74
2023/06/17 00:43:51;;;;;;;5.73;5.20;;;14.30;3.00;;;;;;5014033;28;20188;-74
2023/06/17 00:46:36;;;;;;;5.63;5.03;;;14.30;3.70;;;;;;5014702;28;20184;-74
2023/06/17 00:49:03;;;;;;;7.90;5.90;;;14.30;3.70;;;;;;5014813;28;20240;-74
2023/06/17 00:51:32;;;;;;;7.73;6.20;;;14.30;3.60;;;;;;5014537;28;20465;-74
2023/06/17 00:53:58;;;;;;;6.67;5.30;;;14.20;3.10;;;;;;5014464;28;20410;-74
2023/06/17 00:56:26;;;;;;;8.07;5.37;;;14.20;3.60;;;;;;5014379;28;20412;-74
2023/06/17 00:58:53;;;;;;;8.53;5.50;;;14.10;4.00;;;;;;5014370;28;20415;-74
2023/06/17 01:01:19;;;;;;;5.37;4.87;;;14.00;4.20;;;;;;5014266;28;20438;-74
2023/06/17 01:03:45;;;;;;;6.33;5.60;;;14.00;4.70;;;;;;5014073;28;20427;-74
2023/06/17 01:06:19;;;;;;;5.33;4.83;;;14.00;4.80;;;;;;5014269;28;20403;-74
2023/06/17 01:08:53;;;;;;;11.80;6.20;;;13.90;5.10;;;;;;5014191;28;20454;-74
2023/06/17 01:11:21;;;;;;;5.70;5.10;;;13.90;5.30;;;;;;5014184;28;20822;-74
2023/06/17 01:13:51;;;;;;;5.50;4.60;;;13.80;5.40;;;;;;5013871;28;20411;-74
2023/06/17 01:16:17;;;;;;;6.13;5.07;;;13.80;5.20;;;;;;5013932;28;20495;-74
2023/06/17 01:18:48;;;;;;;9.87;5.50;;;13.80;5.50;;;;;;5014034;28;20853;-74
2023/06/17 01:21:15;;;;;;;5.97;5.37;;;13.70;5.50;;;;;;5013859;28;20431;-74
2023/06/17 01:23:42;;;;;;;6.70;6.07;;;13.80;5.60;;;;;;5013597;28;20410;-74
2023/06/17 01:26:07;;;;;;;5.10;4.60;;;13.70;5.50;;;;;;5013721;28;20421;-74
2023/06/17 01:28:36;;;;;;;6.77;6.07;;;13.70;5.30;;;;;;5014008;28;20458;-74
2023/06/17 01:31:02;;;;;;;7.13;5.50;;;13.70;5.50;;;;;;5013624;28;20192;-74
2023/06/17 01:33:28;;;;;;;6.07;5.50;;;13.70;5.80;;;;;;5013397;28;20414;-74
2023/06/17 01:36:07;;;;;;;5.73;4.53;;;13.70;5.90;;;;;;5013548;28;20643;-73
2023/06/17 01:38:45;;;;;;;12.20;4.50;;;13.60;6.10;;;;;;5013660;28;20506;-74
2023/06/17 01:41:22;;;;;;;5.40;4.50;;;13.50;6.10;;;;;;5013493;28;20451;-74
2023/06/17 01:43:49;;;;;;;9.03;6.07;;;13.50;5.90;;;;;;5013420;28;20419;-74
2023/06/17 01:46:16;;;;;;;7.83;6.40;;;13.50;6.20;;;;;;5013827;28;20423;-74
2023/06/17 01:48:42;;;;;;;7.70;5.30;;;13.40;6.40;;;;;;5013328;28;20454;-74
2023/06/17 01:51:08;;;;;;;6.07;5.10;;;13.40;6.60;;;;;;5013853;28;20431;-74
2023/06/17 01:53:34;;;;;;;7.37;5.27;;;13.40;6.60;;;;;;5013150;28;20418;-74
2023/06/17 01:55:59;;;;;;;6.20;5.60;;;13.40;6.80;;;;;;5012472;28;20182;-73
2023/06/17 01:58:25;;;;;;;5.90;5.30;;;13.40;6.60;;;;;;5013273;28;20267;-74
2023/06/17 02:00:50;;;;;;;8.73;6.40;;;13.30;7.50;;;;;;5012986;28;20207;-74
2023/06/17 02:03:17;;;;;;;5.60;5.00;;;13.30;7.50;;;;;;5011656;28;20569;-74
2023/06/17 02:05:43;;;;;;;6.00;5.40;;;13.20;7.40;;;;;;5013112;28;20172;-74
2023/06/17 02:08:09;;;;;;;4.97;3.97;;;13.20;7.40;;;;;;5013133;28;20486;-74
2023/06/17 02:10:35;;;;;;;6.13;5.50;;;13.20;7.40;;;;;;5013128;28;20969;-74
2023/06/17 02:13:03;;;;;;;7.10;5.43;;;13.20;7.40;;;;;;5013157;28;20411;-73
2023/06/17 02:15:29;;;;;;;5.60;4.20;;;13.20;7.40;;;;;;5013833;28;20415;-74
2023/06/17 02:17:56;;;;;;;6.83;5.97;;;13.20;7.40;;;;;;5013085;28;20426;-74
2023/06/17 02:20:22;;;;;;;6.03;5.43;;;13.10;8.00;;;;;;5013119;28;20969;-73
2023/06/17 02:22:48;;;;;;;7.17;6.03;;;13.10;8.10;;;;;;5012853;28;20440;-74
2023/06/17 02:25:14;;;;;;;12.10;5.50;;;13.10;8.30;;;;;;5012937;28;20568;-74
2023/06/17 02:27:40;;;;;;;5.40;4.63;;;13.00;8.50;;;;;;5012881;28;20451;-73
2023/06/17 02:30:06;;;;;;;6.27;5.20;;;;;;;;;;5012843;28;20789;-73
2023/06/17 02:32:32;;;;;;;9.40;5.47;;;13.00;8.20;;;;;;5012785;28;20647;-73
2023/06/17 02:34:57;;;;;;;8.80;6.57;;;13.00;8.90;;;;;;5012787;28;20411;-75
2023/06/17 02:37:23;;;;;;;6.83;5.20;;;13.00;8.60;;;;;;5012735;28;20176;-74
2023/06/17 02:39:49;;;;;;;6.03;4.77;;;12.90;8.10;;;;;;5012609;28;20219;-74
2023/06/17 02:42:14;;;;;;;7.83;5.27;;;12.90;8.80;;;;;;5012211;28;20183;-75
2023/06/17 02:44:40;;;;;;;9.10;6.30;;;12.90;8.70;;;;;;5012609;28;20219;-74
2023/06/17 02:47:06;;;;;;;7.03;6.30;;;12.90;9.10;;;;;;5012405;28;20425;-74
2023/06/17 02:49:31;;;;;;;9.83;5.80;;;12.80;9.40;;;;;;5012379;28;20245;-74
2023/06/17 02:51:57;;;;;;;8.30;6.50;;;12.80;9.90;;;;;;5012099;28;20424;-74
2023/06/17 02:54:22;;;;;;;7.17;5.43;;;12.70;9.80;;;;;;5012331;28;20594;-74
2023/06/17 02:56:48;;;;;;;6.47;5.57;;;12.70;10.10;;;;;;5012481;28;20779;-75
2023/06/17 02:59:15;;;;;;;8.50;4.70;;;12.70;10.40;;;;;;5012219;28;20615;-74
2023/06/17 03:01:42;;;;;;;5.93;5.27;;;12.60;10.40;;;;;;5011880;28;20577;-74
2023/06/17 03:04:10;;;;;;;5.37;4.83;;;12.60;10.80;;;;;;5012029;28;20422;-74
2023/06/17 03:06:37;;;;;;;6.50;5.80;;;12.60;11.50;;;;;;5012024;28;20429;-74
2023/06/17 03:09:03;;;;;;;6.30;5.17;;;12.50;11.40;;;;;;5012131;28;20865;-74
2023/06/17 03:11:29;;;;;;;5.93;5.30;;;12.50;11.40;;;;;;5011851;28;20816;-75
2023/06/17 03:13:55;;;;;;;7.30;5.93;;;12.50;11.40;;;;;;5011929;28;20497;-74
2023/06/17 03:16:24;;;;;;;6.00;5.40;;;12.50;11.40;;;;;;5012083;28;20457;-74
2023/06/17 03:18:49;;;;;;;6.73;5.93;;;12.40;11.30;;;;;;5011961;28;20419;-74
2023/06/17 03:21:15;;;;;;;5.73;4.90;;;12.40;11.30;;;;;;5011862;28;20437;-74
2023/06/17 03:23:42;;;;;;;8.20;5.33;;;12.50;11.40;;;;;;5011727;28;20240;-75
2023/06/17 03:26:09;;;;;;;5.67;5.17;;;12.40;11.30;;;;;;5011972;28;20415;-74
2023/06/17 03:28:35;;;;;;;7.17;5.70;;;12.40;11.30;;;;;;5011890;28;20549;-74
2023/06/17 03:31:01;;;;;;;5.57;4.77;;;12.40;11.40;;;;;;5010532;28;20470;-74
2023/06/17 03:33:26;;;;;;;5.90;5.30;;;12.40;11.30;;;;;;5011655;28;20457;-74
2023/06/17 03:35:52;;;;;;;7.03;5.33;;;12.40;11.30;;;;;;5011717;28;20246;-74
2023/06/17 03:38:19;;;;;;;6.87;5.07;;;12.40;11.30;;;;;;5011926;28;20191;-74
2023/06/17 03:40:45;;;;;;;6.00;4.53;;;12.50;11.40;;;;;;5011833;28;20260;-74
2023/06/17 03:43:11;;;;;;;7.50;5.50;;;12.50;11.40;;;;;;5010333;28;20432;-74
2023/06/17 03:45:36;;;;;;;5.67;5.07;;;12.50;11.40;;;;;;5012142;28;20454;-74
2023/06/17 03:48:02;;;;;;;8.17;5.60;;;12.50;11.10;;;;;;5011735;28;20577;-74
2023/06/17 03:50:28;;;;;;;6.00;5.07;;;12.60;11.50;;;;;;5011806;28;20191;-74
2023/06/17 03:52:54;;;;;;;6.60;5.70;;;12.60;11.50;;;;;;5011640;28;20467;-73
2023/06/17 03:55:19;;;;;;;6.97;6.27;;;12.60;11.20;;;;;;5010655;28;20192;-73
2023/06/17 03:57:45;;;;;;;6.70;5.77;;;12.70;11.20;;;;;;5010481;28;20302;-73
2023/06/17 04:00:11;;;;;;;7.87;5.40;;;12.70;11.10;;;;;;5011648;28;20200;-74
2023/06/17 04:02:37;;;;;;;5.40;4.80;;;12.80;11.20;;;;;;5011616;28;20483;-74
2023/06/17 04:05:04;;;;;;;5.20;4.40;;;12.80;10.90;;;;;;5011732;28;20500;-74
2023/06/17 04:07:32;;;;;;;6.60;4.80;;;12.90;10.90;;;;;;5010543;28;20208;-73
2023/06/17 04:09:58;;;;;;;6.60;5.20;;;12.90;10.80;;;;;;5011603;28;20438;-73
2023/06/17 04:12:23;;;;;;;6.30;5.60;;;13.00;10.20;;;;;;5011316;28;20432;-73
2023/06/17 04:14:49;;;;;;;5.37;4.70;;;13.00;10.20;;;;;;5011814;28;20510;-74
2023/06/17 04:17:17;;;;;;;6.53;4.80;;;13.20;10.00;;;;;;5011488;28;20180;-74
2023/06/17 04:19:43;;;;;;;5.83;5.10;;;13.20;9.60;;;;;;5014095;28;20230;-73
2023/06/17 04:22:08;;;;;;;6.83;6.03;;;13.30;9.30;;;;;;5014674;28;20931;-73
2023/06/17 04:24:34;;;;;;;6.20;5.60;;;13.30;8.70;;;;;;5015083;28;20194;-73
2023/06/17 04:26:59;;;;;;;7.40;5.40;;;13.40;8.30;;;;;;5015013;28;20275;-73
2023/06/17 04:29:29;;;;;;;6.50;5.80;;;13.50;8.50;;;;;;5014858;28;20207;-74
2023/06/17 04:31:56;;;;;;;5.60;5.00;;;13.50;7.60;;;;;;5015027;28;20178;-74
2023/06/17 04:34:22;;;;;;;5.50;4.97;;;13.70;7.80;;;;;;5015081;28;20423;-74
2023/06/17 04:36:49;;;;;;;8.40;6.67;;;13.80;7.80;;;;;;5014585;28;20418;-74
2023/06/17 04:39:15;;;;;;;6.67;6.00;;;13.80;7.30;;;;;;5014572;28;20208;-73
2023/06/17 04:41:44;;;;;;;6.53;5.80;;;14.00;7.20;;;;;;5015190;28;20830;-73
2023/06/17 04:44:09;;;;;;;5.70;4.90;;;14.10;6.70;;;;;;5013178;28;20420;-73
2023/06/17 04:46:35;;;;;;;5.43;4.30;;;14.30;6.20;;;;;;5014434;28;20430;-74
2023/06/17 04:49:02;;;;;;;5.80;5.30;;;14.40;6.30;;;;;;5014353;28;20228;-74
2023/06/17 04:51:28;;;;;;;6.30;5.70;;;14.50;5.70;;;;;;5013561;28;20193;-73
2023/06/17 04:53:53;;;;;;;6.60;5.93;;;14.60;5.10;;;;;;5014197;28;20796;-73
2023/06/17 04:56:19;;;;;;;8.67;6.13;;;14.70;4.90;;;;;;5014266;28;20506;-73
2023/06/17 04:58:45;;;;;;;6.70;6.10;;;14.70;4.80;;;;;;5014199;28;20282;-73
2023/06/17 05:01:12;;;;;;;5.57;5.03;;;14.80;4.00;;;;;;5012767;28;20549;-75
2023/06/17 05:03:37;;;;;;;6.37;4.83;;;15.00;4.10;;;;;;5014258;28;20641;-69
2023/06/17 05:06:03;;;;;;;9.13;5.40;;;15.10;4.20;;;;;;5013252;28;20426;-70
2023/06/17 05:08:28;;;;;;;9.30;6.43;;;15.20;3.80;;;;;;5014089;28;20210;-70
2023/06/17 05:10:54;;;;;;;7.90;5.70;;;15.40;3.40;;;;;;5014089;28;20322;-70
2023/06/17 05:13:19;;;;;;;7.03;6.07;;;15.50;3.70;;;;;;5013723;28;20236;-70
2023/06/17 05:15:45;;;;;;;9.77;5.83;;;15.60;2.70;;;;;;5013930;28;20182;-69
2023/06/17 05:18:10;;;;;;;7.00;6.30;;;15.70;2.90;;;;;;5013889;28;20708;-70
2023/06/17 05:20:36;;;;;;;6.40;5.33;;;15.90;2.00;;;;;;5013887;28;20289;-72
2023/06/17 05:23:02;;;;;;;6.10;4.87;;;16.00;2.00;;;;;;5012224;28;20270;-69
2023/06/17 05:25:27;;;;;;;7.83;5.70;;;16.30;1.70;;;;;;5012478;28;20184;-70
2023/06/17 05:27:53;;;;;;;7.57;6.20;;;16.50;1.00;;;;;;5013593;28;20333;-70
2023/06/17 05:30:18;;;;;;;6.30;5.67;;;16.70;1.00;;;;;;5012626;28;20205;-74
2023/06/17 05:32:44;;;;;;;6.20;5.60;;;16.90;1.00;;;;;;5013258;28;20211;-74
2023/06/17 05:35:09;;;;;;;6.10;5.50;;;17.00;1.00;;;;;;5014487;28;20197;-72
2023/06/17 05:37:35;;;;;;;8.63;6.60;;;17.10;1.00;;;;;;5013306;28;20184;-72
2023/06/17 05:40:00;;;;;;;5.93;5.33;;;17.40;1.00;;;;;;5013166;28;20624;-71
2023/06/17 05:42:26;;;;;;;6.90;5.53;;;18.30;1.00;;;;;;5013175;28;20179;-71
2023/06/17 05:44:52;;;;;;;7.37;6.77;;;20.70;1.00;;;;;;5013523;28;20343;-72
2023/06/17 05:47:17;;;;;;;7.37;6.50;;;22.40;1.00;;;;;;5013345;28;20202;-72
2023/06/17 05:49:43;;;;;;;8.80;8.00;;;25.10;1.00;;;;;;5013085;28;20246;-71
2023/06/17 05:52:10;;;;;;;11.20;8.17;;;26.40;1.00;;;;;;5012862;28;20180;-72
2023/06/17 05:54:37;;;;;;;8.23;7.40;;;28.40;1.00;;;;;;5013038;28;20172;-72
2023/06/17 05:57:03;;;;;;;8.23;7.63;;;30.20;1.00;;;;;;5013096;28;20421;-72
2023/06/17 05:59:29;;;;;;;8.40;7.70;;;31.10;1.00;;;;;;5012926;28;20411;-72
2023/06/17 06:01:55;;;;;;;9.20;8.40;;;31.60;1.00;;;;;;5012804;28;20180;-72
2023/06/17 06:04:20;;;;;;;8.73;8.03;;;32.50;1.00;;;;;;5013022;28;20943;-72
2023/06/17 06:06:46;;;;;;;8.23;7.63;;;33.40;1.00;;;;;;5012882;28;20661;-72
2023/06/17 06:09:12;;;;;;;8.23;7.53;;;34.00;1.00;;;;;;5012818;28;20719;-72
2023/06/17 06:11:37;;;;;;;13.33;7.67;;;34.80;1.00;;;;;;5012511;28;20270;-72
2023/06/17 06:14:03;;;;;;;9.03;8.30;;;34.70;1.00;;;;;;5012733;28;20180;-73
2023/06/17 06:16:29;;;;;;;8.20;7.60;;;35.20;1.00;;;;;;5012755;28;20171;-73
2023/06/17 06:18:54;;;;;;;9.57;8.67;;;35.90;1.00;;;;;;5012823;28;20418;-72
2023/06/17 06:21:20;;;;;;;9.50;8.80;;;35.70;1.00;;;;;;5012709;28;20204;-74
2023/06/17 06:23:45;;;;;;;10.20;9.20;;;35.10;1.00;;;;;;5012426;28;20207;-73
2023/06/17 06:26:11;;;;;;;9.60;8.80;;;35.40;1.00;;;;;;5012782;28;20180;-72
2023/06/17 06:28:36;;;;;;;8.30;7.60;;;35.30;1.00;;;;;;5012406;28;20210;-72
2023/06/17 06:31:03;;;;;;;9.67;8.93;;;34.30;1.00;;;;;;5012472;28;20673;-74
2023/06/17 06:33:28;;;;;;;8.40;7.60;;;32.90;1.00;;;;;;5012203;28;20184;-73
2023/06/17 06:35:54;;;;;;;9.50;8.50;;;32.90;1.00;;;;;;5012455;28;20418;-73
2023/06/17 06:38:19;;;;;;;15.87;7.83;;;33.10;1.00;;;;;;5012420;28;20203;-74
2023/06/17 06:40:45;;;;;;;8.80;8.10;;;34.20;1.00;;;;;;5011940;28;20220;-73
2023/06/17 06:43:10;;;;;;;8.07;7.47;;;34.30;1.00;;;;;;5012053;28;20183;-73
2023/06/17 06:45:36;;;;;;;8.27;7.67;;;36.10;1.00;;;;;;5012273;28;20187;-72
2023/06/17 06:48:01;;;;;;;8.37;7.67;;;37.30;1.00;;;;;;5012090;28;20204;-73
2023/06/17 06:50:27;;;;;;;9.00;8.13;;;37.30;1.00;;;;;;5012265;28;20254;-72
2023/06/17 06:52:53;;;;;;;9.30;7.63;;;37.20;1.00;;;;;;5011976;28;20230;-71
2023/06/17 06:55:18;;;;;;;6.80;6.33;;;37.40;1.00;;;;;;5012271;28;20172;-76
2023/06/17 06:57:44;;;;;;;7.53;6.93;;;37.30;1.00;;;;;;5012042;28;20529;-69
2023/06/17 07:00:11;;;;;;;7.93;7.17;;;36.30;1.00;;;;;;5012181;28;20199;-71
2023/06/17 07:02:37;;;;;;;8.90;8.10;;;35.60;1.00;;;;;;5011831;28;20184;-70
2023/06/17 07:05:04;;;;;;;13.93;8.70;;;36.90;1.00;;;;;;5012520;28;20514;-70
2023/06/17 07:07:30;;;;;;;8.23;7.53;;;37.60;1.00;;;;;;4992679;28;20551;-70
2023/06/17 07:09:56;;;;;;;8.50;7.63;;;38.40;1.00;;;;;;4992437;28;20463;-70
2023/06/17 07:12:21;;;;;;;8.57;7.87;;;38.70;1.00;;;;;;4991986;28;20469;-70
2023/06/17 07:14:47;;;;;;;7.97;7.37;;;37.20;1.00;;;;;;4992482;28;20176;-70
2023/06/17 07:17:13;;;;;;;7.23;6.70;;;38.00;1.00;;;;;;4992372;28;20318;-70
2023/06/17 07:19:38;;;;;;;8.00;6.80;;;39.50;1.00;;;;;;4992844;28;20230;-70
2023/06/17 07:22:04;;;;;;;8.10;7.37;;;39.40;1.00;;;;;;4992003;28;20506;-70
2023/06/17 07:24:30;;;;;;;8.97;7.40;;;39.60;1.00;;;;;;4992123;28;20268;-70
2023/06/17 07:26:55;;;;;;;7.20;6.70;;;39.30;1.00;;;;;;4992275;28;20774;-70
2023/06/17 07:29:21;;;;;;;7.37;6.87;;;40.70;1.00;;;;;;4992037;28;20686;-70
2023/06/17 07:31:46;;;;;;;7.57;6.97;;;41.60;1.00;;;;;;4991892;28;20225;-70
2023/06/17 07:34:12;;;;;;;8.03;7.40;;;42.00;1.00;;;;;;4992182;28;20185;-71
2023/06/17 07:36:37;;;;;;;7.63;6.60;;;42.10;1.00;;;;;;4992168;28;20201;-70
2023/06/17 07:39:03;;;;;;;8.97;8.07;;;42.20;1.00;;;;;;4991655;28;20256;-70
2023/06/17 07:41:28;;;;;;;8.20;7.60;;;41.50;1.00;;;;;;4990717;28;20239;-70
2023/06/17 07:43:54;;;;;;;7.97;7.37;;;42.00;1.00;;;;;;4992133;28;20630;-70
2023/06/17 07:46:19;;;;;;;8.13;7.40;;;41.60;1.00;;;;;;4992325;28;20200;-70
2023/06/17 07:48:45;;;;;;;8.37;7.73;;;41.60;1.00;;;;;;4992032;28;20205;-70
2023/06/17 07:51:11;;;;;;;7.20;6.70;;;41.80;1.00;;;;;;4992175;28;20223;-70
2023/06/17 07:53:36;;;;;;;7.67;7.13;;;42.30;1.00;;;;;;4993347;28;20181;-70
2023/06/17 07:56:02;;;;;;;8.20;7.60;;;41.70;1.00;;;;;;4995766;28;20458;-70
2023/06/17 07:58:28;;;;;;;8.80;8.00;;;41.50;1.00;;;;;;4995534;28;20184;-70
2023/06/17 08:00:53;;;;;;;6.93;6.33;;;41.60;1.00;;;;;;4995772;28;20188;-71
2023/06/17 08:03:18;;;;;;;7.57;7.07;;;42.50;1.00;;;;;;4995425;28;20180;-71
2023/06/17 08:05:44;;;;;;;7.80;7.30;;;42.20;1.00;;;;;;4995651;28;20181;-70
2023/06/17 08:08:10;;;;;;;7.30;6.80;;;42.30;1.00;;;;;;4995699;28;20208;-71
2023/06/17 08:10:35;;;;;;;7.17;6.67;;;42.90;1.00;;;;;;4995509;28;20385;-71
2023/06/17 08:13:01;;;;;;;7.57;6.90;;;41.80;1.00;;;;;;4995115;28;20181;-70
2023/06/17 08:15:27;;;;;;;6.80;6.20;;;41.90;1.00;;;;;;4995595;28;20293;-77
2023/06/17 08:17:52;;;;;;;8.73;6.93;;;42.30;1.00;;;;;;4995462;28;20173;-71
2023/06/17 08:20:19;;;;;;;7.70;7.10;;;42.40;1.00;;;;;;4995168;28;20447;-71
2023/06/17 08:22:44;;;;;;;8.27;7.40;;;43.60;1.00;;;;;;4995155;28;20189;-72
2023/06/17 08:25:10;;;;;;;8.23;7.57;;;41.30;1.00;;;;;;4995053;28;20416;-71
2023/06/17 08:27:37;;;;;;;7.63;7.03;;;41.40;1.00;;;;;;4995215;28;20232;-71
2023/06/17 08:30:03;;;;;;;13.73;7.30;;;41.50;1.00;;;;;;4994961;28;20570;-72
2023/06/17 08:32:29;;;;;;;8.07;7.47;;;42.60;1.00;;;;;;4994585;28;20494;-70
2023/06/17 08:34:55;;;;;;;7.90;7.10;;;42.40;1.00;;;;;;4994882;28;20515;-69
2023/06/17 08:37:20;;;;;;;7.83;7.13;;;42.00;1.00;;;;;;4994984;28;20227;-71
2023/06/17 08:39:46;;;;;;;8.20;7.43;;;41.80;1.00;;;;;;4993319;28;20209;-70
2023/06/17 08:42:11;;;;;;;9.80;7.77;;;40.70;1.00;;;;;;4994503;28;20260;-70
2023/06/17 08:44:45;;;;;;;7.00;6.50;;;41.00;1.00;;;;;;4994948;28;20180;-71
2023/06/17 08:47:17;;;;;;;19.23;8.00;;;41.40;1.00;;;;;;4994699;28;20172;-70
2023/06/17 08:49:44;;;;;;;7.50;7.00;;;43.40;1.00;;;;;;4994633;28;22206;-70
2023/06/17 08:52:11;;;;;;;11.63;8.03;;;42.80;1.00;;;;;;4994343;28;20607;-70
2023/06/17 08:54:40;;;;;;;8.40;7.70;;;43.00;1.00;;;;;;4994553;28;20404;-70
2023/06/17 08:57:08;;;;;;;7.90;7.30;;;44.20;1.00;;;;;;4993229;28;20428;-70
2023/06/17 08:59:34;;;;;;;7.37;6.60;;;43.90;1.00;;;;;;4994359;28;20407;-70
2023/06/17 09:02:01;;;;;;;9.00;8.10;;;44.60;1.00;;;;;;4994134;28;20416;-70
2023/06/17 09:04:26;;;;;;;7.73;6.97;;;43.00;1.00;;;;;;4994143;28;20231;-72
2023/06/17 09:06:52;;;;;;;7.90;7.30;;;43.30;1.00;;;;;;4994245;28;20456;-73
2023/06/17 09:09:22;;;;;;;7.80;7.20;;;42.20;1.00;;;;;;4994275;28;20215;-73
2023/06/17 09:11:52;;;;;;;8.07;7.47;;;41.80;1.00;;;;;;4992767;28;20185;-73
2023/06/17 09:14:18;;;;;;;7.63;6.80;;;41.70;1.00;;;;;;4997757;28;21006;-75
2023/06/17 09:16:44;;;;;;;7.20;6.60;;;40.40;1.00;;;;;;4996292;28;20924;-71
2023/06/17 09:19:13;;;;;;;8.77;7.93;;;38.50;1.00;;;;;;5013526;28;20418;-75
2023/06/17 09:21:39;;;;;;;12.00;7.27;;;35.80;1.00;;;;;;5013285;28;20196;-74
2023/06/17 09:24:07;;;;;;;7.47;6.63;;;34.30;1.00;;;;;;5013576;28;20411;-75
2023/06/17 09:26:34;;;;;;;6.30;5.77;;;32.00;1.00;;;;;;5013440;28;20483;-73
2023/06/17 09:29:02;;;;;;;6.47;5.97;;;30.90;1.00;;;;;;5013072;28;20459;-73
2023/06/17 09:31:28;;;;;;;7.27;6.70;;;29.70;1.00;;;;;;5013148;28;20431;-72
2023/06/17 09:33:55;;;;;;;7.63;7.03;;;29.20;1.00;;;;;;5013315;28;20457;-73
2023/06/17 09:36:22;;;;;;;7.07;6.43;;;28.70;1.00;;;;;;5013315;28;20411;-72
2023/06/17 09:38:51;;;;;;;6.83;6.33;;;28.50;1.00;;;;;;5011913;28;20430;-74
2023/06/17 09:41:18;;;;;;;5.93;5.43;;;28.20;1.00;;;;;;5013206;28;20505;-71
2023/06/17 09:43:51;;;;;;;8.43;6.20;;;28.00;1.00;;;;;;5012793;28;20446;-71
2023/06/17 09:46:25;;;;;;;6.57;5.97;;;27.90;1.00;;;;;;5013068;28;20411;-69
2023/06/17 09:48:51;;;;;;;13.70;5.87;;;27.90;1.00;;;;;;5013029;28;20497;-69
2023/06/17 09:51:21;;;;;;;7.40;6.20;;;27.90;1.00;;;;;;5012942;28;20431;-70
2023/06/17 09:53:50;;;;;;;6.13;5.73;;;27.60;1.00;;;;;;5012738;28;20751;-72
2023/06/17 09:56:18;;;;;;;6.20;5.60;;;27.70;1.00;;;;;;5012704;28;20407;-70
2023/06/17 09:58:44;;;;;;;7.17;6.57;;;27.80;1.00;;;;;;5012797;28;20414;-68
2023/06/17 10:01:11;;;;;;;6.60;6.10;;;27.70;1.00;;;;;;5012517;28;20960;-69
2023/06/17 10:03:37;;;;;;;12.30;6.70;;;27.50;1.00;;;;;;5012380;28;20418;-67
2023/06/17 10:06:07;;;;;;;6.97;6.00;;;27.60;1.00;;;;;;5012620;28;20411;-68
2023/06/17 10:08:36;;;;;;;6.00;5.50;;;27.50;1.00;;;;;;5012370;28;20576;-68
2023/06/17 10:11:02;;;;;;;5.70;5.30;;;27.50;1.00;;;;;;5012646;28;20754;-70
2023/06/17 10:13:34;;;;;;;7.10;6.60;;;27.80;1.00;;;;;;5012147;28;20419;-70
2023/06/17 10:16:02;;;;;;;7.20;6.60;;;28.00;1.00;;;;;;5011879;28;20194;-70
2023/06/17 10:18:29;;;;;;;5.90;5.40;;;28.00;1.00;;;;;;5012340;28;20494;-70
2023/06/17 10:20:55;;;;;;;6.23;5.70;;;27.90;1.00;;;;;;5012458;28;20858;-70
2023/06/17 10:23:22;;;;;;;6.70;6.20;;;27.90;1.00;;;;;;5005051;28;20439;-69
2023/06/17 10:25:48;;;;;;;6.80;6.10;;;28.30;1.00;;;;;;4992681;28;20473;-70
2023/06/17 10:28:16;;;;;;;5.57;5.17;;;28.50;1.00;;;;;;4992621;28;20830;-70
2023/06/17 10:30:46;;;;;;;5.80;5.30;;;28.60;1.00;;;;;;4992455;28;20697;-70
2023/06/17 10:33:12;;;;;;;7.20;6.60;;;28.70;1.00;;;;;;4992260;28;20416;-70
2023/06/17 10:35:39;;;;;;;6.83;6.30;;;28.60;1.00;;;;;;4992875;28;20415;-70
2023/06/17 10:38:07;;;;;;;6.70;6.20;;;28.70;1.00;;;;;;4992422;28;20778;-70
2023/06/17 10:40:36;;;;;;;6.93;6.23;;;29.00;1.00;;;;;;4993063;28;20463;-70
2023/06/17 10:43:01;;;;;;;7.67;6.87;;;29.00;1.00;;;;;;4992648;28;20462;-68
2023/06/17 10:45:32;;;;;;;9.53;7.20;;;29.20;1.00;;;;;;4991648;28;20448;-68
2023/06/17 10:48:22;;;;;;;6.30;5.90;;;29.60;1.00;;;;;;4992773;28;20200;-69
2023/06/17 10:51:00;;;;;;;6.50;6.00;;;29.80;1.00;;;;;;4992725;28;20426;-73
2023/06/17 10:53:35;;;;;;;6.03;5.53;;;29.80;1.00;;;;;;4998283;28;20760;-68
2023/06/17 10:56:02;;;;;;;7.63;6.17;;;29.80;1.00;;;;;;5023049;28;20414;-67
2023/06/17 10:58:44;;;;;;;6.73;6.13;;;29.50;1.00;;;;;;5031917;28;20422;-68
2023/06/17 11:01:11;;;;;;;6.50;6.00;;;29.20;1.00;;;;;;4991074;28;20451;-68
2023/06/17 11:03:37;;;;;;;7.50;6.70;;;29.20;1.00;;;;;;4992444;28;20491;-68
2023/06/17 11:06:09;;;;;;;13.40;7.07;;;29.30;1.00;;;;;;4991367;28;20535;-68
2023/06/17 11:08:36;;;;;;;6.37;5.97;;;29.20;1.00;;;;;;4991174;28;20466;-68
2023/06/17 11:11:10;;;;;;;7.50;6.90;;;29.20;1.00;;;;;;4994204;28;20431;-68
2023/06/17 11:13:40;;;;;;;6.00;5.60;;;28.90;1.00;;;;;;5031723;28;20410;-68
2023/06/17 11:16:07;;;;;;;6.80;6.30;;;29.00;1.00;;;;;;5030572;28;20414;-68
2023/06/17 11:18:41;;;;;;;10.20;6.60;;;28.70;1.00;;;;;;5012352;28;20523;-68
2023/06/17 11:21:07;;;;;;;6.30;5.90;;;28.80;1.00;;;;;;4992132;28;20435;-67
2023/06/17 11:23:35;;;;;;;6.83;6.33;;;28.90;1.00;;;;;;4991780;28;20505;-67
2023/06/17 11:26:01;;;;;;;6.43;5.93;;;28.90;1.00;;;;;;4990602;28;20428;-67
2023/06/17 11:28:27;;;;;;;7.80;6.90;;;29.00;1.00;;;;;;4995117;28;20485;-68
2023/06/17 11:30:56;;;;;;;7.20;6.50;;;28.70;1.00;;;;;;4995914;28;20514;-68
2023/06/17 11:33:22;;;;;;;6.77;6.27;;;28.50;1.00;;;;;;4995784;28;20172;-68
2023/06/17 11:35:48;;;;;;;7.47;6.87;;;28.60;1.00;;;;;;4996034;28;20419;-68
2023/06/17 11:38:16;;;;;;;9.03;8.07;;;28.80;1.00;;;;;;5004262;28;20513;-68
2023/06/17 11:40:42;;;;;;;7.53;6.83;;;29.10;1.00;;;;;;5015225;28;20464;-68
2023/06/17 11:43:09;;;;;;;7.50;6.90;;;29.50;1.00;;;;;;5015381;28;20407;-69
2023/06/17 11:45:35;;;;;;;7.90;6.47;;;29.80;1.00;;;;;;5015564;28;20442;-69
2023/06/17 11:48:02;;;;;;;7.10;6.60;;;29.40;1.00;;;;;;5015484;28;20497;-69
2023/06/17 11:50:30;;;;;;;6.20;5.70;;;29.60;1.00;;;;;;5015336;28;20512;-68
2023/06/17 11:52:56;;;;;;;7.63;7.03;;;29.80;1.00;;;;;;5013592;28;20431;-68
2023/06/17 11:55:35;;;;;;;6.63;6.20;;;30.10;1.00;;;;;;5015299;28;20418;-69
2023/06/17 11:58:03;;;;;;;7.30;6.70;;;29.90;1.00;;;;;;5015236;28;20425;-70
2023/06/17 12:00:30;;;;;;;7.10;6.53;;;29.70;1.00;;;;;;5013982;28;20443;-68
2023/06/17 12:02:59;;;;;;;6.80;6.30;;;29.90;1.00;;;;;;5015007;28;20415;-71
2023/06/17 12:05:28;;;;;;;7.10;6.40;;;29.90;1.00;;;;;;5015460;28;20720;-71
2023/06/17 12:07:58;;;;;;;7.77;7.17;;;30.20;1.00;;;;;;5015864;28;20454;-71
2023/06/17 12:10:25;;;;;;;7.07;6.43;;;30.20;1.00;;;;;;5015626;28;20437;-71
2023/06/17 12:12:55;;;;;;;7.00;6.40;;;30.40;1.00;;;;;;5014932;28;20417;-70
2023/06/17 12:15:27;;;;;;;10.53;6.80;;;30.20;1.00;;;;;;5015206;28;20414;-71
2023/06/17 12:17:57;;;;;;;6.63;6.10;;;30.00;1.00;;;;;;5015106;28;20414;-71
2023/06/17 12:20:23;;;;;;;7.33;6.63;;;29.80;1.00;;;;;;5014707;28;20442;-71
2023/06/17 12:22:50;;;;;;;7.87;7.27;;;29.90;1.00;;;;;;5013671;28;20434;-70
2023/06/17 12:25:16;;;;;;;7.30;6.60;;;29.80;1.00;;;;;;5017398;28;20418;-70
2023/06/17 12:27:42;;;;;;;7.43;6.70;;;29.70;1.00;;;;;;5018640;28;20819;-70
2023/06/17 12:30:09;;;;;;;7.00;6.50;;;29.70;1.00;;;;;;5018660;28;20192;-70
2023/06/17 12:32:36;;;;;;;7.13;6.60;;;29.60;1.00;;;;;;5018592;28;20429;-72
2023/06/17 12:35:02;;;;;;;8.17;7.50;;;29.60;1.00;;;;;;5017547;28;20748;-70
2023/06/17 12:37:31;;;;;;;7.23;6.67;;;29.60;1.00;;;;;;5016017;28;20414;-71
2023/06/17 12:39:59;;;;;;;6.23;5.70;;;29.50;1.00;;;;;;5015842;28;21018;-71
2023/06/17 12:42:25;;;;;;;7.53;6.83;;;29.40;1.00;;;;;;5016701;28;20415;-71
2023/06/17 12:44:51;;;;;;;7.13;6.63;;;29.20;1.00;;;;;;5016919;28;20411;-71
2023/06/17 12:47:19;;;;;;;7.13;6.53;;;29.10;1.00;;;;;;5015980;28;20439;-71
2023/06/17 12:49:45;;;;;;;6.63;6.13;;;29.10;1.00;;;;;;5037510;28;21001;-71
2023/06/17 12:52:10;;;;;;;6.60;6.00;;;29.00;1.00;;;;;;5035488;28;20418;-70